Time;durP1;ratioP1;P1;durP2;ratioP2;P2;SDS_P1;SDS_P2;PMS_P1;PMS_P2;Temp;Humidity;BMP_temperature;BMP_pressure;BME280_temperature;BME280_humidity;BME280_pressure;Samples;Min_cycle;Max_cycle;Signal;HPM_P1;HPM_P2
2022/04/04 00:01:21;;;;;;;16.75;8.40;;;;;;;-0.54;100.00;102038.56;5268110;28;20031;-78
2022/04/04 00:03:51;;;;;;;17.95;9.02;;;;;;;-0.50;100.00;102042.78;5267866;28;20034;-77
2022/04/04 00:06:22;;;;;;;18.25;8.50;;;;;;;-0.46;100.00;102040.84;5263220;28;20064;-77
2022/04/04 00:08:53;;;;;;;19.33;8.98;;;;;;;-0.45;100.00;102030.25;5258842;28;20123;-78
2022/04/04 00:11:23;;;;;;;24.75;9.02;;;;;;;-0.41;100.00;102037.06;5267691;28;20127;-77
2022/04/04 00:13:54;;;;;;;20.38;8.65;;;;;;;-0.41;100.00;102033.59;5267663;28;20036;-77
2022/04/04 00:16:24;;;;;;;14.52;8.25;;;;;;;-0.43;100.00;102031.03;5266874;28;20016;-77
2022/04/04 00:18:55;;;;;;;21.48;9.00;;;;;;;-0.40;100.00;102035.28;5267486;28;20032;-77
2022/04/04 00:21:25;;;;;;;19.02;8.02;;;;;;;-0.37;100.00;102024.63;5267726;28;20488;-77
2022/04/04 00:23:56;;;;;;;17.05;7.63;;;;;;;-0.35;100.00;102031.56;5267310;28;20047;-77
2022/04/04 00:26:26;;;;;;;19.55;7.80;;;;;;;-0.35;100.00;102031.56;5266938;28;20028;-77
2022/04/04 00:28:57;;;;;;;17.35;8.13;;;;;;;-0.34;100.00;102024.50;5267406;28;20016;-77
2022/04/04 00:31:27;;;;;;;20.20;8.20;;;;;;;-0.31;100.00;102021.72;5267148;28;20016;-77
2022/04/04 00:33:58;;;;;;;19.27;8.05;;;;;;;-0.36;100.00;102013.16;5261811;28;20364;-77
2022/04/04 00:36:28;;;;;;;16.35;7.80;;;;;;;-0.43;100.00;102014.34;5257605;28;20020;-77
2022/04/04 00:38:59;;;;;;;17.63;8.05;;;;;;;-0.39;100.00;102008.03;5267737;28;20101;-77
2022/04/04 00:41:29;;;;;;;14.02;6.82;;;;;;;-0.35;100.00;102001.66;5263395;28;20024;-76
2022/04/04 00:43:59;;;;;;;17.80;7.65;;;;;;;-0.26;100.00;101999.47;5266850;28;20017;-77
2022/04/04 00:46:30;;;;;;;15.68;7.38;;;;;;;-0.20;100.00;101986.94;5266417;28;20024;-77
2022/04/04 00:49:00;;;;;;;20.60;7.97;;;;;;;-0.15;100.00;101987.59;5267199;28;20028;-77
2022/04/04 00:51:31;;;;;;;22.27;7.60;;;;;;;-0.13;100.00;101989.25;5267138;28;20023;-77
2022/04/04 00:54:03;;;;;;;17.42;7.45;;;;;;;-0.10;100.00;101980.31;5267245;28;20032;-77
2022/04/04 00:56:36;;;;;;;15.15;6.88;;;;;;;-0.10;100.00;101977.69;5266636;28;20372;-77
2022/04/04 00:59:10;;;;;;;14.20;6.55;;;;;;;-0.09;100.00;101969.72;5267156;28;20028;-77
2022/04/04 01:01:40;;;;;;;14.13;6.97;;;;;;;-0.08;100.00;101975.84;5249480;28;20034;-77
2022/04/04 01:04:12;;;;;;;12.05;5.97;;;;;;;0.01;100.00;101969.31;5267405;28;20023;-77
2022/04/04 01:06:44;;;;;;;14.48;6.93;;;;;;;0.03;100.00;101967.44;5222620;28;20061;-77
2022/04/04 01:09:15;;;;;;;15.50;7.25;;;;;;;0.05;100.00;101961.19;5266906;28;20028;-77
2022/04/04 01:12:07;;;;;;;20.30;6.93;;;;;;;0.13;100.00;101959.03;5266975;28;20016;-78
2022/04/04 01:14:45;;;;;;;17.35;7.05;;;;;;;0.13;100.00;101947.63;5266297;28;20111;-77
2022/04/04 01:17:19;;;;;;;17.27;7.03;;;;;;;0.11;100.00;101952.97;5266724;28;20418;-77
2022/04/04 01:19:50;;;;;;;;;;;;;;;0.16;100.00;101947.47;5267660;28;20089;-77
2022/04/04 01:22:21;;;;;;;16.70;6.25;;;;;;;0.16;100.00;101947.47;5266819;28;20329;-76
2022/04/04 01:24:52;;;;;;;16.27;6.68;;;;;;;0.17;100.00;101946.53;5267711;28;20054;-74
2022/04/04 01:27:23;;;;;;;13.38;6.60;;;;;;;0.15;100.00;101937.81;5266640;28;20103;-77
2022/04/04 01:29:53;;;;;;;13.55;5.95;;;;;;;0.19;100.00;101940.25;5266440;28;20031;-78
2022/04/04 01:32:24;;;;;;;13.57;6.18;;;;;;;0.19;100.00;101934.97;5266445;28;20495;-78
2022/04/04 01:34:54;;;;;;;13.95;5.75;;;;;;;0.24;100.00;101932.13;5252781;28;20132;-78
2022/04/04 01:37:24;;;;;;;15.57;6.25;;;;;;;0.33;100.00;101929.03;5265565;28;20020;-78
2022/04/04 01:39:55;;;;;;;24.40;7.53;;;;;;;0.32;100.00;101923.84;5263421;28;20070;-78
2022/04/04 01:42:26;;;;;;;15.45;6.50;;;;;;;0.39;100.00;101925.25;5266489;28;20059;-78
2022/04/04 01:45:09;;;;;;;17.35;6.22;;;;;;;0.45;100.00;101912.63;5266107;28;20479;-78
2022/04/04 01:47:41;;;;;;;14.20;6.15;;;;;;;0.51;100.00;101914.09;5266139;28;20024;-77
2022/04/04 01:50:14;;;;;;;10.82;5.43;;;;;;;0.50;100.00;101907.09;5267003;28;20020;-77
2022/04/04 01:53:25;;;;;;;16.63;5.60;;;;;;;0.47;100.00;101899.34;5248309;28;20066;-77
2022/04/04 01:55:35;;;;;;;21.45;7.03;;;;;;;0.48;100.00;101893.97;5257070;28;20032;-77
2022/04/04 01:58:05;;;;;;;11.32;5.40;;;;;;;0.55;100.00;101893.66;5261803;28;20020;-78
2022/04/04 02:00:38;;;;;;;13.70;5.78;;;;;;;0.63;100.00;101887.06;5266315;28;20400;-78
2022/04/04 02:03:10;;;;;;;15.60;5.63;;;;;;;0.65;100.00;101881.69;5266525;28;20106;-78
2022/04/04 02:05:41;;;;;;;11.77;5.43;;;;;;;0.65;100.00;101885.22;5265584;28;20028;-78
2022/04/04 02:08:12;;;;;;;18.15;6.05;;;;;;;0.67;100.00;101877.22;5266049;28;20513;-77
2022/04/04 02:10:44;;;;;;;11.45;5.65;;;;;;;0.66;100.00;101872.88;5266199;28;20524;-77
2022/04/04 02:13:15;;;;;;;11.57;5.97;;;;;;;0.63;100.00;101870.38;5266133;28;20028;-77
2022/04/04 02:15:46;;;;;;;15.90;5.85;;;;;;;0.60;100.00;101866.09;5265053;28;20031;-78
2022/04/04 02:18:18;;;;;;;14.57;5.85;;;;;;;0.63;100.00;101860.66;5266421;28;20256;-77
2022/04/04 02:20:49;;;;;;;15.27;6.32;;;;;;;0.63;100.00;101854.53;5266328;28;20154;-78
2022/04/04 02:23:20;;;;;;;11.98;5.85;;;;;;;0.68;100.00;101852.50;5266312;28;20028;-78
2022/04/04 02:25:52;;;;;;;14.95;5.70;;;;;;;0.67;100.00;101851.66;5265429;28;20153;-78
2022/04/04 02:28:23;;;;;;;12.35;5.60;;;;;;;0.72;100.00;101849.63;5265906;28;20024;-77
2022/04/04 02:30:55;;;;;;;12.45;5.75;;;;;;;0.69;100.00;101848.94;5265918;28;20148;-77
2022/04/04 02:33:25;;;;;;;11.88;5.90;;;;;;;0.72;100.00;101840.84;5247256;28;20393;-78
2022/04/04 02:35:56;;;;;;;16.60;6.32;;;;;;;0.72;100.00;101836.44;5256208;28;20027;-77
2022/04/04 02:38:28;;;;;;;15.50;6.93;;;;;;;0.77;100.00;101831.75;5269716;28;20483;-78
2022/04/04 02:40:58;;;;;;;14.15;7.35;;;;;;;0.80;100.00;101829.88;5266222;28;20028;-78
2022/04/04 02:43:29;;;;;;;13.00;6.18;;;;;;;0.80;100.00;101817.53;5269981;28;20499;-77
2022/04/04 02:46:00;;;;;;;15.95;6.15;;;;;;;0.86;100.00;101811.09;5268868;28;20062;-78
2022/04/04 02:48:30;;;;;;;12.40;5.70;;;;;;;1.03;100.00;101805.75;5269722;28;20483;-77
2022/04/04 02:51:01;;;;;;;13.88;6.45;;;;;;;1.07;100.00;101806.47;5251327;28;20028;-78
2022/04/04 02:53:31;;;;;;;13.70;5.85;;;;;;;1.14;100.00;101806.03;5269796;28;20099;-78
2022/04/04 02:58:51;;;;;;;15.45;6.22;;;;;;;1.17;100.00;101781.25;5270297;28;20020;-79
2022/04/04 03:01:22;;;;;;;15.80;6.82;;;;;;;1.22;100.00;101784.50;5234918;28;20027;-78
2022/04/04 03:03:53;;;;;;;18.15;5.93;;;;;;;1.31;100.00;101778.72;5269749;28;20027;-78
2022/04/04 03:06:23;;;;;;;12.27;6.63;;;;;;;1.33;100.00;101774.19;5268619;28;20024;-78
2022/04/04 03:08:54;;;;;;;13.30;6.18;;;;;;;1.41;100.00;101774.63;5269420;28;20064;-78
2022/04/04 03:11:25;;;;;;;17.40;6.40;;;;;;;1.42;100.00;101770.19;5269215;28;20027;-78
2022/04/04 03:13:55;;;;;;;18.73;6.65;;;;;;;1.47;100.00;101769.00;5269067;28;20085;-78
2022/04/04 03:16:26;;;;;;;13.43;6.60;;;;;;;1.55;100.00;101761.47;5268562;28;20468;-78
2022/04/04 03:18:58;;;;;;;14.75;6.35;;;;;;;1.54;100.00;101754.47;5269396;28;20032;-78
2022/04/04 03:21:29;;;;;;;20.67;7.47;;;;;;;1.54;100.00;101753.63;5269303;28;20219;-78
2022/04/04 03:24:00;;;;;;;16.83;7.25;;;;;;;1.54;100.00;101743.03;5268887;28;20491;-77
2022/04/04 03:26:32;;;;;;;14.85;7.03;;;;;;;1.53;100.00;101739.53;5268080;28;20028;-78
2022/04/04 03:29:02;;;;;;;17.33;7.30;;;;;;;1.51;100.00;101730.00;5268843;28;20035;-77
2022/04/04 03:31:33;;;;;;;19.30;8.27;;;;;;;1.54;100.00;101733.31;5268832;28;20024;-78
2022/04/04 03:34:03;;;;;;;16.88;7.47;;;;;;;1.56;100.00;101730.59;5244333;28;20440;-79
2022/04/04 03:36:34;;;;;;;17.23;7.75;;;;;;;1.61;100.00;101723.25;5260227;28;20035;-78
2022/04/04 03:39:05;;;;;;;21.42;8.00;;;;;;;1.61;100.00;101717.97;5268870;28;20020;-78
2022/04/04 03:41:35;;;;;;;20.58;9.20;;;;;;;1.58;100.00;101712.00;5264951;28;20433;-77
2022/04/04 03:44:06;;;;;;;19.02;8.35;;;;;;;1.53;100.00;101699.88;5268471;28;20024;-79
2022/04/04 03:46:38;;;;;;;18.80;8.95;;;;;;;1.60;100.00;101700.38;5267989;28;20475;-77
2022/04/04 03:49:08;;;;;;;20.70;8.73;;;;;;;1.63;100.00;101692.28;5268428;28;20452;-77
2022/04/04 03:51:38;;;;;;;20.80;8.43;;;;;;;1.60;100.00;101689.78;5268060;28;20023;-78
2022/04/04 03:54:09;;;;;;;25.00;9.25;;;;;;;1.60;100.00;101691.59;5267724;28;20471;-80
2022/04/04 03:56:39;;;;;;;22.77;9.63;;;;;;;1.59;100.00;101685.44;5268748;28;20020;-77
2022/04/04 03:59:10;;;;;;;20.13;8.48;;;;;;;1.59;100.00;101674.88;5268604;28;20027;-77
2022/04/04 04:01:40;;;;;;;23.20;9.43;;;;;;;1.61;100.00;101670.34;5268442;28;20107;-79
2022/04/04 04:04:11;;;;;;;22.05;9.27;;;;;;;1.64;100.00;101667.50;5267986;28;20028;-77
2022/04/04 04:06:41;;;;;;;19.60;9.70;;;;;;;1.66;100.00;101655.06;5250275;28;20440;-77
2022/04/04 04:09:13;;;;;;;21.55;10.35;;;;;;;1.71;100.00;101650.38;5268108;28;20032;-78
2022/04/04 04:11:43;;;;;;;20.58;10.15;;;;;;;1.69;100.00;101648.75;5268667;28;20057;-77
2022/04/04 04:14:14;;;;;;;17.50;9.35;;;;;;;1.69;100.00;101646.94;5267403;28;20023;-77
2022/04/04 04:16:44;;;;;;;26.35;10.05;;;;;;;1.73;100.00;101647.63;5267870;28;20024;-77
2022/04/04 04:22:16;;;;;;;22.55;9.77;;;;;;;1.79;100.00;101640.16;5267602;28;20437;-77
2022/04/04 04:24:48;;;;;;;25.05;9.80;;;;;;;1.77;100.00;101633.28;5267143;28;20543;-77
2022/04/04 04:27:19;;;;;;;19.38;9.85;;;;;;;1.77;100.00;101639.41;5267746;28;20169;-77
2022/04/04 04:29:49;;;;;;;26.55;9.38;;;;;;;1.77;100.00;101626.19;5267855;28;20098;-77
2022/04/04 04:32:21;;;;;;;23.90;9.63;;;;;;;1.79;100.00;101642.81;5267898;28;20128;-78
2022/04/04 04:34:52;;;;;;;24.20;10.18;;;;;;;1.79;100.00;101632.22;5253727;28;20356;-77
2022/04/04 04:37:22;;;;;;;24.25;10.73;;;;;;;1.82;100.00;101628.56;5265512;28;20027;-77
2022/04/04 04:39:53;;;;;;;26.25;9.95;;;;;;;1.81;100.00;101627.72;5264053;28;20478;-77
2022/04/04 04:42:23;;;;;;;24.83;10.38;;;;;;;1.84;100.00;101621.38;5266568;28;20480;-78
2022/04/04 04:44:53;;;;;;;22.60;10.38;;;;;;;1.83;100.00;101611.75;5248496;28;20123;-77
2022/04/04 04:47:25;;;;;;;22.80;10.38;;;;;;;1.81;100.00;101605.69;5267246;28;20127;-77
2022/04/04 04:49:56;;;;;;;24.17;10.00;;;;;;;1.88;100.00;101609.66;5266806;28;20102;-77
2022/04/04 04:52:27;;;;;;;26.20;10.82;;;;;;;1.92;100.00;101597.13;5267234;28;20081;-77
2022/04/04 04:54:57;;;;;;;25.10;10.32;;;;;;;1.90;100.00;101604.28;5266751;28;20514;-78
2022/04/04 04:57:28;;;;;;;20.77;11.57;;;;;;;1.92;100.00;101590.03;5267571;28;20044;-76
2022/04/04 05:00:02;;;;;;;24.42;9.60;;;;;;;2.01;100.00;101589.47;5267516;28;20475;-75
2022/04/04 05:02:34;;;;;;;32.22;9.88;;;;;;;2.05;100.00;101582.19;5266736;28;20031;-75
2022/04/04 05:05:05;;;;;;;22.52;10.27;;;;;;;2.05;100.00;101582.19;5266371;28;20027;-77
2022/04/04 05:07:36;;;;;;;22.73;9.98;;;;;;;2.09;100.00;101586.34;5267341;28;20028;-76
2022/04/04 05:10:06;;;;;;;23.10;10.55;;;;;;;2.12;100.00;101572.09;5268612;28;20027;-74
2022/04/04 05:12:37;;;;;;;23.05;9.90;;;;;;;2.16;100.00;101571.81;5266701;28;20540;-74
2022/04/04 05:15:08;;;;;;;27.05;13.18;;;;;;;2.21;100.00;101575.03;5249293;28;20398;-75
2022/04/04 05:17:38;;;;;;;19.10;10.32;;;;;;;2.30;100.00;101563.84;5266906;28;20028;-75
2022/04/04 05:20:10;;;;;;;24.30;12.05;;;;;;;2.38;100.00;101563.38;5267104;28;20016;-74
2022/04/04 05:22:40;;;;;;;23.33;10.98;;;;;;;2.40;100.00;101557.97;5266716;28;20028;-75
2022/04/04 05:25:12;;;;;;;25.70;10.90;;;;;;;2.43;100.00;101550.69;5266104;28;20077;-75
2022/04/04 05:27:42;;;;;;;27.88;11.38;;;;;;;2.44;100.00;101546.25;5266618;28;20103;-76
2022/04/04 05:30:13;;;;;;;24.58;9.38;;;;;;;2.47;100.00;101546.06;5267377;28;20093;-74
2022/04/04 05:32:43;;;;;;;18.60;9.55;;;;;;;2.54;100.00;101544.72;5266488;28;20020;-77
2022/04/04 05:35:15;;;;;;;18.77;8.18;;;;;;;2.61;100.00;101546.03;5251198;28;20024;-75
2022/04/04 05:37:46;;;;;;;23.02;9.68;;;;;;;2.64;100.00;101545.81;5266184;28;20107;-74
2022/04/04 05:40:17;;;;;;;18.38;9.05;;;;;;;2.69;100.00;101541.09;5262965;28;20028;-76
2022/04/04 05:42:49;;;;;;;18.63;8.73;;;;;;;2.76;100.00;101538.88;5266378;28;20047;-77
2022/04/04 05:45:19;;;;;;;22.05;9.25;;;;;;;2.77;100.00;101530.84;5265767;28;20024;-76
2022/04/04 05:47:50;;;;;;;18.33;8.90;;;;;;;2.82;100.00;101522.59;5248344;28;20055;-76
2022/04/04 05:50:20;;;;;;;21.30;9.55;;;;;;;2.91;100.00;101523.78;5266588;28;20036;-76
2022/04/04 05:52:51;;;;;;;19.58;9.07;;;;;;;2.95;100.00;101520.00;5267085;28;20506;-79
2022/04/04 05:55:21;;;;;;;17.88;9.25;;;;;;;2.97;100.00;101510.16;5265797;28;20031;-79
2022/04/04 05:57:52;;;;;;;18.98;8.95;;;;;;;2.99;100.00;101508.25;5266581;28;20434;-79
2022/04/04 06:00:22;;;;;;;21.02;9.40;;;;;;;3.15;100.00;101508.06;5266796;28;20522;-79
2022/04/04 06:02:53;;;;;;;22.40;8.88;;;;;;;3.17;100.00;101509.69;5266524;28;20035;-79
2022/04/04 06:05:23;;;;;;;19.02;8.48;;;;;;;3.27;100.00;101507.25;5247796;28;20032;-79
2022/04/04 06:07:54;;;;;;;19.83;8.90;;;;;;;3.40;100.00;101496.66;5232299;28;20107;-79
2022/04/04 06:10:24;;;;;;;15.07;8.02;;;;;;;3.53;100.00;101495.72;5270596;28;20069;-79
2022/04/04 06:12:54;;;;;;;15.98;8.25;;;;;;;3.62;100.00;101487.13;5271092;28;20027;-79
2022/04/04 06:15:25;;;;;;;19.52;7.55;;;;;;;3.88;100.00;101466.75;5270251;28;20028;-79
2022/04/04 06:17:56;;;;;;;14.60;7.68;;;;;;;3.97;100.00;101475.03;5270259;28;20024;-79
2022/04/04 06:20:26;;;;;;;17.05;7.88;;;;;;;4.12;100.00;101463.31;5270052;28;20104;-78
2022/04/04 06:22:56;;;;;;;15.73;8.70;;;;;;;4.29;100.00;101475.38;5269918;28;20390;-79
2022/04/04 06:25:27;;;;;;;17.15;7.47;;;;;;;4.31;100.00;101462.81;5269670;28;20043;-79
2022/04/04 06:27:58;;;;;;;18.25;8.35;;;;;;;4.35;100.00;101461.66;5270455;28;20126;-78
2022/04/04 06:30:29;;;;;;;20.20;9.23;;;;;;;4.43;100.00;101458.44;5269959;28;20035;-79
2022/04/04 06:33:01;;;;;;;19.00;7.78;;;;;;;4.30;100.00;101448.69;5270265;28;20040;-79
2022/04/04 06:35:32;;;;;;;23.77;9.25;;;;;;;4.34;100.00;101438.69;5236999;28;20016;-79
2022/04/04 06:38:02;;;;;;;30.52;10.38;;;;;;;4.42;100.00;101433.69;5269857;28;20031;-79
2022/04/04 06:40:33;;;;;;;17.40;8.55;;;;;;;4.39;100.00;101433.91;5265897;28;20361;-75
2022/04/04 06:43:03;;;;;;;14.40;8.38;;;;;;;4.40;100.00;101423.16;5269844;28;20149;-76
2022/04/04 06:45:34;;;;;;;21.90;8.85;;;;;;;4.43;100.00;101429.22;5268843;28;20074;-76
2022/04/04 06:48:04;;;;;;;15.73;8.57;;;;;;;4.30;100.00;101430.09;5269584;28;20064;-76
2022/04/04 06:50:35;;;;;;;21.80;9.43;;;;;;;4.41;100.00;101422.19;5269404;28;20032;-76
2022/04/04 06:53:05;;;;;;;18.92;8.50;;;;;;;4.38;100.00;101424.25;5251415;28;20076;-76
2022/04/04 06:55:37;;;;;;;18.23;9.30;;;;;;;4.39;100.00;101420.63;5269144;28;20515;-76
2022/04/04 06:58:08;;;;;;;16.08;8.88;;;;;;;4.42;100.00;101407.13;5269511;28;20319;-76
2022/04/04 07:00:38;;;;;;;15.30;9.07;;;;;;;4.51;100.00;101410.88;5269417;28;20052;-76
2022/04/04 07:03:09;;;;;;;17.20;8.75;;;;;;;4.70;100.00;101402.41;5250323;28;20028;-75
2022/04/04 07:05:40;;;;;;;18.08;8.82;;;;;;;4.79;100.00;101404.38;5233200;28;20035;-76
2022/04/04 07:08:11;;;;;;;23.65;8.48;;;;;;;4.97;100.00;101392.38;5249667;28;20024;-76
2022/04/04 07:10:41;;;;;;;16.65;9.18;;;;;;;5.26;100.00;101395.44;5249548;28;20038;-76
2022/04/04 07:13:12;;;;;;;19.40;9.73;;;;;;;5.43;100.00;101389.66;5260427;28;20032;-76
2022/04/04 07:15:43;;;;;;;19.63;9.10;;;;;;;5.53;100.00;101380.97;5260298;28;20028;-76
2022/04/04 07:18:14;;;;;;;20.90;8.55;;;;;;;5.57;100.00;101374.41;5267676;28;20023;-76
2022/04/04 07:20:44;;;;;;;18.17;8.98;;;;;;;5.55;100.00;101371.88;5266683;28;20479;-76
2022/04/04 07:23:15;;;;;;;17.17;8.57;;;;;;;5.47;100.00;101366.28;5267722;28;20107;-76
2022/04/04 07:25:47;;;;;;;17.90;8.27;;;;;;;5.67;100.00;101354.06;5267356;28;20047;-76
2022/04/04 07:28:20;;;;;;;17.30;9.15;;;;;;;5.89;100.00;101363.88;5267474;28;20074;-76
2022/04/04 07:30:52;;;;;;;18.70;8.43;;;;;;;5.75;100.00;101353.47;5267542;28;20546;-76
2022/04/04 07:33:22;;;;;;;32.50;9.20;;;;;;;5.87;100.00;101344.50;5266545;28;20028;-76
2022/04/04 07:35:53;;;;;;;16.00;8.98;;;;;;;5.94;100.00;101332.41;5253212;28;20074;-76
2022/04/04 07:38:25;;;;;;;16.63;8.32;;;;;;;6.06;100.00;101338.56;5249464;28;20611;-76
2022/04/04 07:40:55;;;;;;;15.57;7.65;;;;;;;5.82;100.00;101325.38;5255591;28;20484;-76
2022/04/04 07:43:26;;;;;;;23.90;8.60;;;;;;;6.00;100.00;101323.94;5232231;28;20029;-76
2022/04/04 07:45:57;;;;;;;16.50;8.30;;;;;;;6.07;100.00;101324.25;5269783;28;20479;-78
2022/04/04 07:48:28;;;;;;;14.23;8.00;;;;;;;6.36;100.00;101317.38;5279900;28;20081;-77
2022/04/04 07:50:59;;;;;;;19.92;8.60;;;;;;;6.20;100.00;101312.47;5291631;28;20023;-76
2022/04/04 07:53:29;;;;;;;17.25;7.47;;;;;;;6.33;100.00;101298.16;5290930;28;20051;-76
2022/04/04 07:56:00;;;;;;;21.05;8.10;;;;;;;6.47;100.00;101295.16;5286918;28;20032;-76
2022/04/04 07:58:31;;;;;;;24.75;8.00;;;;;;;6.62;100.00;101299.19;5266486;28;20012;-76
2022/04/04 08:01:03;;;;;;;20.98;8.90;;;;;;;6.70;100.00;101307.41;5281071;28;20024;-76
2022/04/04 08:03:34;;;;;;;20.10;8.27;;;;;;;6.65;100.00;101303.44;5278785;28;20023;-76
2022/04/04 08:06:04;;;;;;;18.27;8.00;;;;;;;6.70;100.00;101298.56;5267138;28;20032;-76
2022/04/04 08:08:35;;;;;;;25.67;8.57;;;;;;;6.82;100.00;101297.50;5280153;28;20019;-76
2022/04/04 08:11:08;;;;;;;15.98;7.97;;;;;;;6.72;100.00;101283.25;5276510;28;20082;-76
2022/04/04 08:13:43;;;;;;;25.38;9.60;;;;;;;6.83;100.00;101293.88;5268977;28;20085;-76
2022/04/04 08:16:14;;;;;;;14.93;9.82;;;;;;;6.84;100.00;101276.06;5279629;28;20020;-76
2022/04/04 08:18:44;;;;;;;16.65;8.32;;;;;;;6.60;100.00;101279.81;5273940;28;20071;-76
2022/04/04 08:21:15;;;;;;;18.05;8.00;;;;;;;6.72;100.00;101297.44;5273192;28;20073;-76
2022/04/04 08:23:46;;;;;;;15.32;7.10;;;;;;;6.52;100.00;101290.28;5276848;28;20099;-76
2022/04/04 08:26:17;;;;;;;19.48;7.03;;;;;;;6.49;100.00;101269.25;5274597;28;20032;-76
2022/04/04 08:28:47;;;;;;;16.15;7.28;;;;;;;6.39;100.00;101268.31;5248479;28;20031;-76
2022/04/04 08:31:18;;;;;;;17.83;8.10;;;;;;;6.44;100.00;101271.44;5247783;28;20028;-76
2022/04/04 08:33:48;;;;;;;18.67;7.70;;;;;;;6.45;100.00;101265.13;5262270;28;20594;-76
2022/04/04 08:36:20;;;;;;;22.00;7.78;;;;;;;6.42;100.00;101252.91;5255993;28;20107;-76
2022/04/04 08:38:51;;;;;;;16.27;8.18;;;;;;;6.36;100.00;101248.09;5248334;28;20028;-76
2022/04/04 08:41:22;;;;;;;16.83;8.05;;;;;;;6.18;100.00;101247.84;5262806;28;20628;-76
2022/04/04 08:43:59;;;;;;;16.27;7.70;;;;;;;6.35;100.00;101253.56;5266223;28;20659;-76
2022/04/04 08:46:33;;;;;;;14.55;7.18;;;;;;;6.27;100.00;101261.34;5265875;28;20032;-76
2022/04/04 08:49:05;;;;;;;14.95;8.23;;;;;;;6.21;100.00;101244.88;5268069;28;20043;-76
2022/04/04 08:51:36;;;;;;;22.88;8.60;;;;;;;6.29;100.00;101233.59;5254928;28;20027;-76
2022/04/04 08:54:07;;;;;;;21.77;8.25;;;;;;;6.34;100.00;101235.88;5266215;28;20653;-76
2022/04/04 08:56:37;;;;;;;15.80;8.55;;;;;;;6.34;100.00;101230.56;5232215;28;20086;-76
2022/04/04 08:59:08;;;;;;;22.52;8.48;;;;;;;6.40;100.00;101228.22;5232069;28;20024;-76
2022/04/04 09:01:38;;;;;;;18.90;7.82;;;;;;;6.44;100.00;101226.13;5255145;28;20034;-76
2022/04/04 09:04:09;;;;;;;19.98;9.05;;;;;;;6.37;100.00;101233.78;5248906;28;20328;-76
2022/04/04 09:07:00;;;;;;;22.00;9.23;;;;;;;6.32;100.00;101219.16;5277010;28;20028;-76
2022/04/04 09:09:50;;;;;;;20.98;8.52;;;;;;;6.37;100.00;101220.47;5256422;28;20391;-76
2022/04/04 09:12:23;;;;;;;22.33;8.93;;;;;;;6.36;100.00;101212.59;5247166;28;20020;-75
2022/04/04 09:14:56;;;;;;;15.38;8.68;;;;;;;6.47;100.00;101204.53;5264686;28;20030;-75
2022/04/04 09:17:30;;;;;;;26.98;8.30;;;;;;;6.44;100.00;101208.31;5265435;28;20016;-75
2022/04/04 09:20:09;;;;;;;19.85;9.68;;;;;;;6.51;100.00;101197.97;5265520;28;20034;-75
2022/04/04 09:22:52;;;;;;;17.73;9.10;;;;;;;6.18;100.00;101191.88;5264699;28;20048;-75
2022/04/04 09:25:41;;;;;;;21.15;8.65;;;;;;;6.27;100.00;101190.25;5247098;28;20106;-75
2022/04/04 09:28:29;;;;;;;17.65;8.30;;;;;;;6.28;100.00;101189.28;5247095;28;20125;-75
2022/04/04 09:31:18;;;;;;;21.00;8.52;;;;;;;6.35;100.00;101176.28;5246780;28;20051;-75
2022/04/04 09:33:48;;;;;;;17.92;9.50;;;;;;;6.36;100.00;101175.28;5263458;28;20116;-75
2022/04/04 09:36:19;;;;;;;14.40;8.15;;;;;;;6.22;100.00;101165.81;5264677;28;20521;-75
2022/04/04 09:39:10;;;;;;;18.80;8.30;;;;;;;6.14;100.00;101173.63;5265185;28;20097;-75
2022/04/04 09:41:41;;;;;;;18.70;8.13;;;;;;;6.06;100.00;101165.41;5261474;28;20095;-75
2022/04/04 09:44:12;;;;;;;17.73;8.68;;;;;;;5.90;100.00;101172.00;5267510;28;20036;-75
2022/04/04 09:46:44;;;;;;;15.23;8.90;;;;;;;5.88;100.00;101173.97;5251150;28;20644;-75
2022/04/04 09:49:17;;;;;;;18.58;8.60;;;;;;;5.76;100.00;101166.13;5269351;28;20034;-75
2022/04/04 09:51:53;;;;;;;16.98;8.68;;;;;;;5.62;100.00;101152.16;5268799;28;20028;-75
2022/04/04 09:54:28;;;;;;;17.83;8.80;;;;;;;5.73;100.00;101161.94;5268526;28;20031;-75
2022/04/04 09:57:15;;;;;;;20.60;9.38;;;;;;;5.63;100.00;101155.69;5269347;28;20025;-75
2022/04/04 09:59:47;;;;;;;20.40;9.32;;;;;;;5.68;100.00;101124.19;5251023;28;20032;-75
2022/04/04 10:02:18;;;;;;;17.13;8.25;;;;;;;5.57;100.00;101148.16;5250513;28;20020;-75
2022/04/04 10:04:49;;;;;;;18.67;8.68;;;;;;;5.62;100.00;101151.28;5268422;28;20475;-75
2022/04/04 10:07:20;;;;;;;23.42;9.45;;;;;;;5.53;100.00;101152.09;5251221;28;20024;-76
2022/04/04 10:09:50;;;;;;;16.70;9.63;;;;;;;5.41;100.00;101154.75;5268897;28;20028;-75
2022/04/04 10:12:21;;;;;;;22.88;10.85;;;;;;;5.34;100.00;101145.59;5255669;28;20107;-75
2022/04/04 10:14:52;;;;;;;20.75;10.98;;;;;;;5.39;100.00;101142.56;5249095;28;20096;-76
2022/04/04 10:17:23;;;;;;;20.45;10.55;;;;;;;5.29;100.00;101134.47;5268741;28;20016;-75
2022/04/04 10:19:54;;;;;;;23.60;10.02;;;;;;;5.28;100.00;101146.09;5268647;28;20058;-75
2022/04/04 10:22:25;;;;;;;18.75;9.93;;;;;;;5.29;100.00;101168.22;5268322;28;20077;-75
2022/04/04 10:24:58;;;;;;;16.20;9.85;;;;;;;5.28;100.00;101154.09;5268015;28;20043;-75
2022/04/04 10:27:30;;;;;;;22.52;10.63;;;;;;;5.19;100.00;101141.53;5268369;28;20446;-75
2022/04/04 10:30:04;;;;;;;19.50;9.75;;;;;;;5.27;100.00;101128.47;5268624;28;20030;-76
2022/04/04 10:32:35;;;;;;;20.55;10.13;;;;;;;5.37;100.00;101136.50;5267671;28;20035;-76
2022/04/04 10:35:35;;;;;;;24.05;11.48;;;;;;;5.38;100.00;101131.06;5266735;28;20047;-75
2022/04/04 10:38:06;;;;;;;18.75;9.13;;;;;;;5.38;100.00;101136.41;5265766;28;20086;-74
2022/04/04 10:40:37;;;;;;;17.88;9.90;;;;;;;5.38;100.00;101125.75;5264716;28;20418;-74
2022/04/04 10:43:12;;;;;;;22.95;9.60;;;;;;;5.38;100.00;101123.09;5268168;28;20035;-74
2022/04/04 10:45:52;;;;;;;20.48;10.20;;;;;;;5.48;100.00;101122.34;5267656;28;20118;-75
2022/04/04 10:48:46;;;;;;;20.50;10.45;;;;;;;5.55;100.00;101116.38;5267723;28;20119;-75
2022/04/04 10:51:28;;;;;;;17.92;9.25;;;;;;;5.64;100.00;101114.78;5267329;28;20031;-75
2022/04/04 10:54:22;;;;;;;17.42;9.57;;;;;;;5.61;100.00;101107.03;5267411;28;20028;-75
2022/04/04 10:56:58;;;;;;;16.60;9.00;;;;;;;5.78;100.00;101111.81;5268520;28;20024;-75
2022/04/04 10:59:29;;;;;;;19.67;9.30;;;;;;;5.71;100.00;101102.63;5267915;28;20085;-76
2022/04/04 11:02:02;;;;;;;17.13;9.82;;;;;;;5.72;100.00;101101.66;5267425;28;20032;-75
2022/04/04 11:04:36;;;;;;;15.38;9.15;;;;;;;5.66;100.00;101118.13;5266891;28;20020;-75
2022/04/04 11:10:31;;;;;;;18.63;9.90;;;;;;;5.65;100.00;101098.66;5267469;28;20487;-75
2022/04/04 11:13:04;;;;;;;18.63;9.10;;;;;;;5.72;100.00;101104.31;5267222;28;20032;-75
2022/04/04 11:15:49;;;;;;;22.95;9.70;;;;;;;5.59;100.00;101095.69;5267142;28;20035;-75
2022/04/04 11:18:20;;;;;;;21.75;12.13;;;;;;;5.67;100.00;101082.56;5267649;28;20024;-75
2022/04/04 11:20:58;;;;;;;17.02;9.68;;;;;;;5.75;100.00;101089.91;5267100;28;20450;-75
2022/04/04 11:26:18;;;;;;;21.42;10.55;;;;;;;5.66;100.00;101080.88;5266775;28;20027;-75
2022/04/04 11:28:50;;;;;;;25.38;13.13;;;;;;;5.69;100.00;101081.47;5267561;28;20070;-75
2022/04/04 11:31:22;;;;;;;20.15;11.70;;;;;;;5.62;100.00;101084.75;5266906;28;20016;-75
2022/04/04 11:33:54;;;;;;;24.20;11.68;;;;;;;5.71;100.00;101078.66;5244347;28;20032;-76
2022/04/04 11:36:27;;;;;;;19.08;10.30;;;;;;;5.72;100.00;101085.66;5241177;28;20066;-76
2022/04/04 11:39:16;;;;;;;19.85;10.13;;;;;;;5.70;100.00;101074.31;5267013;28;20437;-75
2022/04/04 11:42:06;;;;;;;19.85;10.60;;;;;;;5.76;100.00;101070.28;5245429;28;20522;-75
2022/04/04 11:44:46;;;;;;;20.33;10.02;;;;;;;5.75;100.00;101061.47;5266231;28;20153;-76
2022/04/04 11:47:17;;;;;;;20.65;10.30;;;;;;;5.77;100.00;101064.81;5266912;28;20103;-76
2022/04/04 11:49:50;;;;;;;21.48;10.68;;;;;;;5.64;100.00;101058.88;5266990;28;20043;-76